Time;durP1;ratioP1;P1;durP2;ratioP2;P2;SDS_P1;SDS_P2;PMS_P1;PMS_P2;Temp;Humidity;BMP_temperature;BMP_pressure;BME280_temperature;BME280_humidity;BME280_pressure;Samples;Min_cycle;Max_cycle;Signal;HPM_P1;HPM_P2
2021/07/05 00:00:18;;;;;;;6.85;2.60;;;16.40;98.20;;;;;;4957913;28;20050;-85
2021/07/05 00:03:24;;;;;;;;;;;;;;;;;;;;;
2021/07/05 05:06:22;;;;;;;;;;;;;;;;;;;;;
2021/07/05 05:09:24;;;;;;;;;;;;;;;;;;;;;
2021/07/05 05:15:06;;;;;;;10.52;4.90;;;16.50;98.60;;;;;;4844943;29;20042;-90
2021/07/05 05:17:46;;;;;;;10.55;4.78;;;16.70;98.60;;;;;;4826351;29;20437;-87
2021/07/05 05:20:55;;;;;;;10.35;4.68;;;16.80;98.50;;;;;;4841563;29;20046;-86
2021/07/05 05:23:21;;;;;;;10.70;4.32;;;16.90;98.40;;;;;;4944576;28;20478;-82
2021/07/05 05:25:47;;;;;;;12.07;4.78;;;17.00;98.40;;;;;;4978788;28;20106;-82
2021/07/05 05:28:12;;;;;;;9.15;3.60;;;17.10;98.50;;;;;;4978636;28;20105;-82
2021/07/05 05:30:39;;;;;;;10.38;4.32;;;17.20;98.40;;;;;;4978130;28;20513;-81
2021/07/05 05:33:05;;;;;;;10.15;3.25;;;17.20;98.20;;;;;;4960865;28;20023;-82
2021/07/05 05:35:31;;;;;;;9.40;3.28;;;17.30;98.20;;;;;;4997816;28;20018;-82
2021/07/05 05:37:57;;;;;;;9.20;3.63;;;17.40;98.40;;;;;;5017178;28;20028;-82
2021/07/05 05:40:24;;;;;;;8.82;3.20;;;17.50;98.40;;;;;;5017534;28;20030;-81
2021/07/05 05:42:50;;;;;;;6.07;3.03;;;17.60;98.70;;;;;;4999803;28;20064;-81
2021/07/05 05:45:16;;;;;;;6.95;2.78;;;17.80;98.80;;;;;;5017462;28;20026;-80
2021/07/05 05:47:42;;;;;;;7.10;2.75;;;18.00;98.90;;;;;;5010134;28;20030;-79
2021/07/05 05:50:08;;;;;;;7.93;2.70;;;18.20;98.60;;;;;;4997377;28;20090;-80
2021/07/05 05:52:34;;;;;;;6.65;2.60;;;18.20;98.30;;;;;;4967590;28;20043;-81
2021/07/05 05:55:04;;;;;;;5.70;2.45;;;18.10;98.00;;;;;;4977554;28;20031;-83
2021/07/05 05:57:31;;;;;;;5.43;2.35;;;18.10;98.00;;;;;;4964687;28;20027;-87
2021/07/05 05:59:59;;;;;;;4.70;2.10;;;18.10;98.30;;;;;;4932697;29;20024;-83
2021/07/05 06:06:02;;;;;;;5.05;2.25;;;18.40;98.20;;;;;;4933423;29;20491;-85
2021/07/05 06:08:27;;;;;;;6.35;2.30;;;18.40;98.30;;;;;;4927793;29;20059;-84
2021/07/05 06:10:53;;;;;;;5.93;2.22;;;18.50;98.40;;;;;;4959687;28;20069;-84
2021/07/05 06:13:20;;;;;;;5.85;1.90;;;18.60;98.80;;;;;;4960131;28;20019;-84
2021/07/05 06:15:52;;;;;;;4.88;2.10;;;18.80;98.70;;;;;;4960064;28;20018;-83
2021/07/05 06:18:22;;;;;;;7.28;2.00;;;18.90;98.40;;;;;;4959171;28;20058;-84
2021/07/05 06:20:48;;;;;;;3.67;1.88;;;19.00;98.40;;;;;;4974280;28;20026;-84
2021/07/05 06:23:24;;;;;;;3.85;1.90;;;19.10;98.50;;;;;;4977040;28;20074;-90
2021/07/05 06:25:49;;;;;;;5.93;1.90;;;19.20;98.70;;;;;;4977834;28;20025;-86
2021/07/05 06:28:16;;;;;;;4.80;1.90;;;19.30;98.40;;;;;;4977300;28;20035;-87
2021/07/05 06:30:42;;;;;;;4.07;2.10;;;19.30;98.20;;;;;;4977337;28;20052;-86
2021/07/05 06:33:09;;;;;;;4.80;2.00;;;19.30;98.10;;;;;;4977209;28;20022;-86
2021/07/05 06:35:35;;;;;;;3.25;1.80;;;19.40;98.30;;;;;;4985256;28;20382;-86
2021/07/05 06:38:01;;;;;;;3.88;1.80;;;19.50;98.50;;;;;;4996685;28;20129;-85
2021/07/05 06:40:28;;;;;;;3.40;1.83;;;19.70;98.50;;;;;;4979300;28;20065;-89
2021/07/05 06:42:53;;;;;;;3.58;1.90;;;19.80;98.60;;;;;;4979524;28;20157;-85
2021/07/05 06:45:19;;;;;;;3.72;1.65;;;20.00;98.60;;;;;;4978635;28;20058;-86
2021/07/05 06:47:45;;;;;;;3.67;1.75;;;20.00;98.50;;;;;;4996192;28;20026;-85
2021/07/05 06:50:14;;;;;;;4.78;1.60;;;20.20;98.60;;;;;;4996312;28;20034;-83
2021/07/05 06:52:57;;;;;;;5.05;1.70;;;20.40;99.00;;;;;;5007570;28;20057;-90
2021/07/05 06:55:33;;;;;;;3.03;1.80;;;20.80;99.50;;;;;;4978114;28;20438;-89
2021/07/05 06:57:59;;;;;;;4.22;1.90;;;21.10;99.20;;;;;;4979200;28;20030;-88
2021/07/05 07:00:29;;;;;;;6.10;1.85;;;21.10;98.90;;;;;;4981128;28;20026;-89
2021/07/05 07:03:02;;;;;;;2.67;1.70;;;21.40;98.90;;;;;;4982357;28;20457;-90
2021/07/05 07:05:45;;;;;;;;;;;;;;;;;;;;;
2021/07/05 07:08:14;;;;;;;3.20;1.77;;;21.50;98.20;;;;;;4985134;28;20030;-86
2021/07/05 07:10:40;;;;;;;4.68;1.80;;;21.50;97.90;;;;;;5015456;28;20019;-85
2021/07/05 07:13:16;;;;;;;2.30;1.60;;;21.50;98.20;;;;;;5006916;28;20023;-86
2021/07/05 07:15:46;;;;;;;3.72;1.85;;;21.60;98.30;;;;;;4979412;28;20495;-84
2021/07/05 07:20:49;;;;;;;3.45;1.63;;;21.80;98.40;;;;;;4976692;28;20022;-84
2021/07/05 07:23:17;;;;;;;4.15;1.80;;;21.80;97.80;;;;;;4977915;28;20027;-84
2021/07/05 07:25:43;;;;;;;3.58;1.63;;;21.80;97.80;;;;;;4995748;28;20458;-84
2021/07/05 07:28:18;;;;;;;3.80;1.80;;;21.80;97.80;;;;;;4995969;28;20029;-84
2021/07/05 07:30:52;;;;;;;2.78;1.60;;;21.70;97.70;;;;;;4978454;28;20028;-84
2021/07/05 07:33:21;;;;;;;2.65;1.70;;;21.80;98.10;;;;;;4947142;28;20133;-84
2021/07/05 07:35:47;;;;;;;3.20;1.70;;;21.80;97.90;;;;;;4978392;28;20042;-83
2021/07/05 07:38:13;;;;;;;2.80;1.60;;;21.70;97.40;;;;;;4994991;28;20030;-83
2021/07/05 07:40:42;;;;;;;3.50;1.52;;;21.60;97.30;;;;;;4978178;28;20037;-82
2021/07/05 07:43:08;;;;;;;3.65;1.70;;;21.60;98.10;;;;;;4978465;28;20495;-83
2021/07/05 07:45:34;;;;;;;4.50;1.77;;;21.70;98.10;;;;;;4995458;28;20030;-83
2021/07/05 07:48:00;;;;;;;2.58;1.63;;;21.80;97.90;;;;;;4995448;28;20026;-83
2021/07/05 07:50:26;;;;;;;4.22;1.88;;;21.90;97.80;;;;;;4994995;28;20033;-82
2021/07/05 07:52:56;;;;;;;2.60;1.60;;;21.80;97.50;;;;;;5009198;28;20042;-83
2021/07/05 07:55:22;;;;;;;4.03;1.85;;;21.70;97.50;;;;;;5014439;28;20033;-84
2021/07/05 07:57:48;;;;;;;3.92;1.77;;;21.80;98.20;;;;;;4981056;28;20022;-84
2021/07/05 08:00:15;;;;;;;2.65;1.80;;;22.10;98.60;;;;;;4977743;28;20033;-84
2021/07/05 08:02:46;;;;;;;3.80;1.50;;;22.40;99.00;;;;;;4995155;28;20030;-83
2021/07/05 08:05:12;;;;;;;6.07;2.05;;;22.70;98.70;;;;;;4977803;28;20026;-83
2021/07/05 08:07:42;;;;;;;2.50;1.67;;;23.00;98.70;;;;;;4994911;28;20030;-85
2021/07/05 08:10:14;;;;;;;4.22;2.00;;;23.20;98.60;;;;;;4994564;28;20042;-84
2021/07/05 08:12:44;;;;;;;4.43;1.80;;;23.40;98.60;;;;;;4994700;28;20023;-84
2021/07/05 08:15:11;;;;;;;4.97;1.83;;;23.60;98.40;;;;;;4994179;28;20038;-84
2021/07/05 08:17:38;;;;;;;4.38;1.80;;;23.70;97.80;;;;;;4994592;28;20024;-82
2021/07/05 08:20:05;;;;;;;3.17;1.65;;;23.60;97.50;;;;;;4994431;28;20478;-83
2021/07/05 08:22:31;;;;;;;2.38;1.70;;;23.50;97.00;;;;;;4976841;28;20038;-83
2021/07/05 08:24:57;;;;;;;4.75;1.70;;;23.40;96.90;;;;;;4993841;28;20114;-84
2021/07/05 08:27:23;;;;;;;3.10;1.80;;;23.30;97.00;;;;;;4977326;28;20026;-84
2021/07/05 08:29:52;;;;;;;2.78;1.95;;;23.20;97.30;;;;;;4977566;28;20554;-85
2021/07/05 08:32:20;;;;;;;2.17;1.60;;;23.20;97.60;;;;;;4996946;28;20037;-85
2021/07/05 08:34:46;;;;;;;2.40;1.75;;;23.30;97.80;;;;;;4992065;28;20027;-84
2021/07/05 08:37:12;;;;;;;4.15;1.60;;;23.50;97.90;;;;;;4978884;28;20471;-87
2021/07/05 08:39:39;;;;;;;3.10;1.88;;;23.70;98.20;;;;;;4977963;28;20048;-82
2021/07/05 08:42:07;;;;;;;1.95;1.60;;;24.10;98.50;;;;;;4994282;28;20038;-82
2021/07/05 08:44:34;;;;;;;3.38;1.63;;;24.30;98.10;;;;;;4980013;28;20035;-82
2021/07/05 08:47:04;;;;;;;3.58;1.85;;;24.50;98.00;;;;;;4974938;28;20030;-83
2021/07/05 08:49:30;;;;;;;2.75;1.60;;;24.70;98.10;;;;;;4992822;28;20023;-87
2021/07/05 08:51:56;;;;;;;2.47;1.80;;;24.90;98.00;;;;;;4968525;28;20059;-87
2021/07/05 08:54:22;;;;;;;3.45;1.70;;;25.00;97.50;;;;;;4973235;28;20023;-87
2021/07/05 08:56:48;;;;;;;1.95;1.70;;;25.10;97.70;;;;;;4956252;28;20031;-85
2021/07/05 08:59:17;;;;;;;3.80;1.95;;;25.20;97.40;;;;;;4974203;28;20022;-85
2021/07/05 09:01:46;;;;;;;2.70;1.90;;;25.20;96.80;;;;;;4974844;28;20058;-84
2021/07/05 09:04:13;;;;;;;2.13;1.60;;;25.30;97.00;;;;;;4957641;28;20435;-82
2021/07/05 09:07:06;;;;;;;2.75;1.85;;;25.30;96.90;;;;;;4974995;28;20379;-83
2021/07/05 09:09:33;;;;;;;6.18;2.47;;;25.30;96.80;;;;;;4957756;28;20545;-85
2021/07/05 09:12:17;;;;;;;3.83;1.80;;;25.20;96.10;;;;;;4974228;28;20034;-85
2021/07/05 09:14:45;;;;;;;2.65;1.95;;;24.90;95.70;;;;;;4974253;28;20550;-86
2021/07/05 09:17:13;;;;;;;5.38;2.00;;;24.70;95.90;;;;;;4975052;28;20136;-86
2021/07/05 09:19:40;;;;;;;3.60;2.00;;;24.70;96.30;;;;;;4974517;28;20116;-84
2021/07/05 09:22:12;;;;;;;4.32;2.40;;;24.70;96.30;;;;;;4941027;28;20066;-85
2021/07/05 09:24:43;;;;;;;2.83;1.70;;;24.40;95.60;;;;;;4974371;28;20103;-84
2021/07/05 09:27:20;;;;;;;3.75;1.80;;;24.30;95.90;;;;;;4957113;28;20026;-85
2021/07/05 09:29:51;;;;;;;4.60;2.13;;;24.20;96.20;;;;;;4974317;28;20038;-85
2021/07/05 09:32:26;;;;;;;5.38;2.47;;;24.20;96.50;;;;;;4957160;28;20030;-86
2021/07/05 09:35:13;;;;;;;5.75;2.20;;;24.10;96.10;;;;;;4974360;28;20025;-87
2021/07/05 09:37:54;;;;;;;4.60;2.30;;;24.10;96.40;;;;;;4976771;28;20037;-86
2021/07/05 09:40:21;;;;;;;3.33;2.10;;;24.30;97.00;;;;;;4961134;28;20077;-86
2021/07/05 09:42:50;;;;;;;4.85;2.22;;;24.50;97.10;;;;;;4978165;28;20035;-86
2021/07/05 09:45:40;;;;;;;4.80;2.63;;;24.60;96.80;;;;;;4978349;28;20360;-85
2021/07/05 09:48:25;;;;;;;5.47;2.22;;;24.70;96.30;;;;;;4960665;28;20113;-84
2021/07/05 09:50:59;;;;;;;;;;;24.80;96.40;;;;;;4978628;28;20478;-82
2021/07/05 09:53:41;;;;;;;12.88;6.15;;;24.80;96.70;;;;;;4981260;28;19965;-81
2021/07/05 09:56:26;;;;;;;5.50;2.70;;;24.90;96.40;;;;;;4983087;28;20026;-80
2021/07/05 09:58:54;;;;;;;5.90;2.60;;;24.90;95.90;;;;;;4978709;28;20502;-80
2021/07/05 10:01:45;;;;;;;10.93;5.03;;;24.80;96.10;;;;;;4978125;28;20411;-80
2021/07/05 10:04:14;;;;;;;8.07;3.17;;;24.90;96.30;;;;;;4977526;28;20031;-81
2021/07/05 10:06:46;;;;;;;5.60;2.65;;;24.90;96.20;;;;;;4977482;28;20030;-80
2021/07/05 10:09:13;;;;;;;5.57;2.75;;;24.90;95.90;;;;;;4977241;28;20023;-80
2021/07/05 10:11:39;;;;;;;6.68;3.03;;;24.80;95.80;;;;;;4977533;28;20058;-81
2021/07/05 10:14:21;;;;;;;8.68;3.55;;;24.80;95.90;;;;;;4960117;28;20062;-80
2021/07/05 10:16:53;;;;;;;5.65;2.90;;;24.70;95.40;;;;;;4976923;28;20393;-80
2021/07/05 10:19:18;;;;;;;5.03;2.47;;;24.70;96.00;;;;;;4976709;28;20029;-81
2021/07/05 10:21:44;;;;;;;6.10;2.67;;;24.70;96.10;;;;;;4959718;28;20039;-81
2021/07/05 10:24:11;;;;;;;4.55;2.38;;;24.70;96.20;;;;;;4977110;28;20039;-80
2021/07/05 10:26:40;;;;;;;6.15;2.83;;;24.90;96.30;;;;;;4977074;28;20033;-81
2021/07/05 10:29:10;;;;;;;4.60;2.47;;;25.00;96.20;;;;;;4976629;28;20475;-81
2021/07/05 10:31:40;;;;;;;5.90;2.90;;;25.00;96.10;;;;;;4976809;28;20023;-80
2021/07/05 10:34:10;;;;;;;5.60;2.60;;;25.00;95.90;;;;;;4976625;28;20082;-82
2021/07/05 10:36:41;;;;;;;5.18;2.60;;;25.10;96.20;;;;;;4959640;28;20026;-80
2021/07/05 10:39:11;;;;;;;3.88;2.30;;;25.20;96.60;;;;;;4959744;28;20430;-81
2021/07/05 10:41:40;;;;;;;4.90;2.42;;;25.60;97.20;;;;;;4959088;28;20058;-82
2021/07/05 10:44:09;;;;;;;3.05;1.95;;;25.80;96.60;;;;;;4959186;28;20030;-82
2021/07/05 10:46:53;;;;;;;4.07;2.03;;;26.00;96.70;;;;;;4976408;28;20098;-82
2021/07/05 10:49:28;;;;;;;3.72;2.00;;;26.20;96.30;;;;;;4939136;29;20035;-81
2021/07/05 10:51:59;;;;;;;4.40;2.15;;;26.40;96.10;;;;;;4942991;28;20047;-81
2021/07/05 10:54:52;;;;;;;4.60;2.13;;;26.30;96.00;;;;;;4955735;29;20407;-81
2021/07/05 10:57:22;;;;;;;2.78;1.80;;;26.40;95.80;;;;;;4961544;28;20077;-81
2021/07/05 10:59:51;;;;;;;3.45;2.17;;;26.50;96.10;;;;;;4976429;28;20027;-80
2021/07/05 11:02:40;;;;;;;2.00;1.80;;;26.80;96.30;;;;;;4976604;28;20399;-80
2021/07/05 11:05:41;;;;;;;3.65;2.20;;;26.90;96.10;;;;;;4975868;28;20034;-80
2021/07/05 11:08:51;;;;;;;1.90;1.70;;;27.00;95.90;;;;;;4976234;28;20541;-80
2021/07/05 11:11:29;;;;;;;4.85;2.30;;;27.10;96.10;;;;;;4956613;28;20094;-80
2021/07/05 11:14:22;;;;;;;2.40;1.80;;;27.20;95.90;;;;;;4976137;28;20282;-80
2021/07/05 11:17:07;;;;;;;2.05;1.63;;;27.50;96.40;;;;;;4975916;28;20106;-81
2021/07/05 11:19:38;;;;;;;2.38;1.67;;;27.80;96.70;;;;;;4975922;28;20390;-81
2021/07/05 11:22:19;;;;;;;1.80;1.60;;;28.10;96.50;;;;;;4975885;28;20598;-81
2021/07/05 11:24:51;;;;;;;2.65;1.80;;;28.20;96.10;;;;;;4975996;28;20211;-81
2021/07/05 11:27:35;;;;;;;2.55;1.63;;;28.10;95.00;;;;;;4975707;28;20501;-81
2021/07/05 11:30:31;;;;;;;2.72;1.65;;;28.00;95.30;;;;;;4975860;28;20471;-81
2021/07/05 11:33:02;;;;;;;3.05;1.60;;;28.20;96.60;;;;;;4959644;28;20513;-81
2021/07/05 11:35:32;;;;;;;3.00;1.80;;;28.40;96.00;;;;;;4975340;28;20065;-80
2021/07/05 11:38:01;;;;;;;3.40;1.70;;;28.50;95.90;;;;;;4975725;28;20026;-80
2021/07/05 11:40:47;;;;;;;2.88;1.52;;;28.70;96.40;;;;;;4975597;28;20034;-80
2021/07/05 11:43:15;;;;;;;3.63;1.58;;;28.90;95.80;;;;;;4957907;28;20053;-80
2021/07/05 11:45:44;;;;;;;1.88;1.50;;;29.10;95.80;;;;;;4975475;28;20539;-80
2021/07/05 11:48:34;;;;;;;1.10;1.10;;;28.90;94.60;;;;;;4975346;28;20039;-81
2021/07/05 11:51:00;;;;;;;1.73;1.10;;;28.80;94.50;;;;;;4962473;28;20114;-81
2021/07/05 11:53:28;;;;;;;1.60;1.48;;;28.80;95.90;;;;;;4973855;28;20570;-80
2021/07/05 11:55:57;;;;;;;1.92;1.13;;;29.00;95.60;;;;;;4973897;28;20027;-80
2021/07/05 11:58:26;;;;;;;1.00;0.98;;;29.40;96.80;;;;;;4974112;28;20493;-79
2021/07/05 12:00:55;;;;;;;1.85;1.25;;;29.90;96.20;;;;;;4975029;28;20019;-79
2021/07/05 12:03:24;;;;;;;1.67;1.00;;;29.90;95.40;;;;;;4974001;28;20030;-79
2021/07/05 12:06:00;;;;;;;1.25;0.90;;;29.80;94.80;;;;;;4974863;28;20101;-79
2021/07/05 12:08:30;;;;;;;0.93;0.90;;;29.70;94.40;;;;;;4974025;28;20058;-79
2021/07/05 12:10:59;;;;;;;1.27;0.93;;;29.70;95.20;;;;;;4975035;28;20383;-80
2021/07/05 12:13:29;;;;;;;1.58;1.00;;;29.70;94.60;;;;;;4973858;28;20065;-79
2021/07/05 12:16:00;;;;;;;1.00;1.00;;;29.60;94.00;;;;;;4974812;28;20030;-79
2021/07/05 12:18:30;;;;;;;2.22;0.93;;;29.30;93.90;;;;;;4973560;28;20027;-81
2021/07/05 12:21:02;;;;;;;1.30;0.80;;;29.20;94.40;;;;;;4974819;28;20027;-79
2021/07/05 12:23:38;;;;;;;1.20;0.80;;;28.90;93.30;;;;;;4973340;28;20061;-81
2021/07/05 12:26:41;;;;;;;0.82;0.60;;;28.80;94.30;;;;;;4974628;28;20174;-81
2021/07/05 12:29:21;;;;;;;1.15;0.80;;;28.90;95.10;;;;;;4945561;29;20439;-82
2021/07/05 12:31:51;;;;;;;1.48;0.90;;;28.80;93.80;;;;;;4954127;29;20023;-79
2021/07/05 12:34:51;;;;;;;0.73;0.70;;;28.40;93.30;;;;;;4957258;28;20051;-80
2021/07/05 12:37:28;;;;;;;2.97;1.00;;;28.20;93.60;;;;;;4955378;29;20143;-81
2021/07/05 12:39:58;;;;;;;0.70;0.70;;;28.00;94.20;;;;;;4973684;28;20379;-80
2021/07/05 12:42:28;;;;;;;2.20;0.88;;;28.10;94.70;;;;;;4974581;28;20038;-80
2021/07/05 12:44:54;;;;;;;0.98;0.98;;;28.00;94.70;;;;;;4974516;28;20053;-80
2021/07/05 12:47:21;;;;;;;2.10;1.05;;;28.10;94.90;;;;;;4974557;28;20035;-80
2021/07/05 12:49:49;;;;;;;1.33;1.08;;;28.10;94.60;;;;;;4974342;28;20379;-80
2021/07/05 12:52:14;;;;;;;1.10;1.00;;;28.00;94.90;;;;;;4983509;28;20049;-81
2021/07/05 12:54:40;;;;;;;1.27;1.17;;;28.30;96.00;;;;;;4993940;28;20030;-82
2021/07/05 12:57:15;;;;;;;2.22;0.77;;;28.50;94.80;;;;;;4960691;28;20034;-81
2021/07/05 12:59:44;;;;;;;0.85;0.85;;;28.30;94.40;;;;;;4993879;28;20022;-81
2021/07/05 13:02:26;;;;;;;0.80;0.80;;;28.00;93.10;;;;;;4993766;28;20458;-82
2021/07/05 13:05:08;;;;;;;1.88;1.13;;;27.50;92.90;;;;;;4993883;28;20470;-81
2021/07/05 13:07:35;;;;;;;2.42;1.05;;;26.90;92.50;;;;;;4993969;28;20041;-82
2021/07/05 13:10:04;;;;;;;1.25;1.13;;;26.40;92.60;;;;;;4993875;28;20030;-81
2021/07/05 13:12:30;;;;;;;0.90;0.90;;;25.90;92.40;;;;;;4995945;28;20027;-81
2021/07/05 13:15:12;;;;;;;1.58;1.17;;;25.40;93.00;;;;;;4980232;28;20364;-80
2021/07/05 13:17:38;;;;;;;1.20;1.10;;;25.10;93.40;;;;;;5000917;28;20061;-80
2021/07/05 13:20:12;;;;;;;2.13;1.27;;;25.00;94.20;;;;;;4997707;28;20018;-80
2021/07/05 13:22:49;;;;;;;1.60;1.10;;;25.10;94.70;;;;;;4997440;28;20034;-80
2021/07/05 13:25:16;;;;;;;1.45;1.02;;;25.10;94.40;;;;;;4979878;28;20026;-79
2021/07/05 13:27:42;;;;;;;1.40;1.30;;;25.20;95.00;;;;;;4989382;28;20089;-78
2021/07/05 13:30:17;;;;;;;1.38;1.23;;;25.30;95.20;;;;;;4978044;28;20479;-79
2021/07/05 13:32:56;;;;;;;1.67;1.50;;;25.40;94.80;;;;;;4978123;28;20499;-80
2021/07/05 13:35:36;;;;;;;4.40;1.90;;;25.50;95.40;;;;;;4978070;28;20023;-81
2021/07/05 13:38:12;;;;;;;3.10;1.15;;;25.80;96.10;;;;;;4978125;28;20057;-82
2021/07/05 13:40:37;;;;;;;0.90;0.90;;;26.20;96.00;;;;;;4961634;28;20031;-81
2021/07/05 13:43:05;;;;;;;1.02;0.88;;;26.40;95.00;;;;;;4978061;28;20046;-81
2021/07/05 13:45:42;;;;;;;1.10;0.88;;;26.50;95.30;;;;;;4977939;28;20087;-82
2021/07/05 13:48:10;;;;;;;1.00;1.00;;;26.60;94.90;;;;;;4977510;28;20019;-81
2021/07/05 13:50:39;;;;;;;1.33;1.10;;;26.70;95.10;;;;;;4977709;28;20501;-81
2021/07/05 13:53:17;;;;;;;1.00;1.00;;;26.80;95.50;;;;;;4960156;28;20054;-82
2021/07/05 13:55:53;;;;;;;1.55;1.20;;;27.20;96.50;;;;;;4960179;28;20027;-81
2021/07/05 13:58:22;;;;;;;1.30;1.20;;;28.00;97.70;;;;;;4977567;28;20026;-81
2021/07/05 14:01:02;;;;;;;2.05;1.45;;;28.80;98.20;;;;;;4977380;28;20384;-85
2021/07/05 14:03:29;;;;;;;1.10;1.10;;;30.00;98.90;;;;;;4977004;28;20097;-84
2021/07/05 14:06:04;;;;;;;0.90;0.90;;;30.90;98.20;;;;;;4977642;28;20045;-85
2021/07/05 14:08:31;;;;;;;1.40;1.30;;;31.40;95.80;;;;;;4961651;28;20027;-86
2021/07/05 14:11:00;;;;;;;1.25;1.13;;;31.30;94.10;;;;;;4979935;28;20027;-88
2021/07/05 14:13:33;;;;;;;1.40;1.25;;;31.00;93.20;;;;;;4963254;28;20043;-85
2021/07/05 14:16:00;;;;;;;2.30;1.10;;;30.60;92.30;;;;;;4978353;28;20096;-83
2021/07/05 14:18:26;;;;;;;1.45;1.10;;;30.20;93.10;;;;;;4960372;28;20091;-85
2021/07/05 14:20:54;;;;;;;1.02;1.02;;;30.00;93.10;;;;;;4977258;28;20027;-87
2021/07/05 14:23:20;;;;;;;3.33;1.35;;;29.90;93.50;;;;;;4975913;28;20041;-85
2021/07/05 14:25:49;;;;;;;2.20;1.15;;;29.90;93.40;;;;;;4977069;28;20051;-83
2021/07/05 14:28:18;;;;;;;1.52;1.42;;;29.80;93.80;;;;;;4977126;28;20065;-87
2021/07/05 14:30:44;;;;;;;1.58;1.30;;;29.50;93.10;;;;;;4977251;28;20033;-86
2021/07/05 14:33:13;;;;;;;1.52;1.30;;;29.40;93.80;;;;;;4977020;28;20027;-85
2021/07/05 14:35:40;;;;;;;1.30;1.20;;;29.60;94.20;;;;;;4976767;28;20049;-85
2021/07/05 14:38:07;;;;;;;1.77;1.20;;;29.60;93.20;;;;;;4960696;28;20030;-87
2021/07/05 14:40:34;;;;;;;3.08;1.85;;;29.30;93.10;;;;;;4977431;28;20114;-85
2021/07/05 14:42:59;;;;;;;5.32;2.70;;;29.10;93.10;;;;;;4977262;28;20061;-84
2021/07/05 14:45:26;;;;;;;1.35;1.10;;;29.10;94.50;;;;;;4977134;28;20155;-85
2021/07/05 14:47:52;;;;;;;1.58;1.30;;;29.40;95.60;;;;;;4959657;28;20027;-85
2021/07/05 14:50:25;;;;;;;1.58;1.25;;;30.10;96.20;;;;;;4976963;28;20379;-85
2021/07/05 14:52:55;;;;;;;2.30;1.23;;;30.50;95.10;;;;;;4959307;28;20055;-87
2021/07/05 14:55:21;;;;;;;1.63;1.52;;;30.80;94.80;;;;;;4960336;28;20031;-82
2021/07/05 14:57:49;;;;;;;5.55;1.80;;;31.00;96.20;;;;;;4959810;28;20475;-83
2021/07/05 15:00:43;;;;;;;2.75;1.52;;;32.20;97.00;;;;;;4977095;28;20034;-83
2021/07/05 15:03:09;;;;;;;1.30;1.20;;;32.60;95.30;;;;;;4972216;28;20084;-82
2021/07/05 15:05:36;;;;;;;1.85;1.30;;;32.90;94.90;;;;;;4976345;28;20023;-83
2021/07/05 15:08:04;;;;;;;2.25;1.27;;;33.60;95.30;;;;;;4959864;28;20034;-83
2021/07/05 15:10:30;;;;;;;2.67;1.13;;;33.40;92.00;;;;;;4976395;28;20027;-83
2021/07/05 15:12:59;;;;;;;1.45;0.90;;;32.70;91.00;;;;;;4976610;28;20031;-83
2021/07/05 15:15:26;;;;;;;1.13;0.93;;;32.00;90.80;;;;;;4958976;28;20027;-83
2021/07/05 15:17:54;;;;;;;2.10;1.10;;;31.40;90.60;;;;;;4976358;28;20479;-83
2021/07/05 15:20:25;;;;;;;2.30;1.48;;;30.70;90.60;;;;;;4958788;28;20027;-82
2021/07/05 15:22:53;;;;;;;1.15;1.05;;;30.10;90.70;;;;;;4976401;28;20445;-82
2021/07/05 15:25:18;;;;;;;1.27;1.00;;;29.60;91.30;;;;;;4976132;28;20459;-83
2021/07/05 15:27:44;;;;;;;1.17;1.08;;;29.10;91.30;;;;;;4976121;28;20093;-86
2021/07/05 15:30:11;;;;;;;1.30;1.17;;;28.60;91.90;;;;;;4976243;28;20027;-86
2021/07/05 15:32:37;;;;;;;1.70;1.30;;;28.40;92.90;;;;;;4975967;28;20030;-85
2021/07/05 15:35:06;;;;;;;1.10;1.10;;;28.30;93.60;;;;;;4958065;28;20027;-86
2021/07/05 15:37:31;;;;;;;4.20;2.25;;;28.60;95.40;;;;;;4992804;28;20109;-87
2021/07/05 15:39:57;;;;;;;5.25;2.55;;;29.30;96.70;;;;;;4995292;28;20438;-88
2021/07/05 15:42:22;;;;;;;3.55;1.40;;;30.20;97.40;;;;;;4970882;28;20054;-88
2021/07/05 15:44:50;;;;;;;1.75;1.10;;;30.70;96.50;;;;;;4952237;28;20470;-85
2021/07/05 15:47:16;;;;;;;1.30;1.20;;;31.30;96.60;;;;;;4973270;28;20507;-86
2021/07/05 15:49:45;;;;;;;3.70;2.55;;;32.80;99.90;;;;;;4975663;28;20411;-83
2021/07/05 15:52:10;;;;;;;4.97;2.70;;;34.20;99.10;;;;;;4966278;28;20438;-85
2021/07/05 15:54:39;;;;;;;1.08;1.08;;;34.80;95.00;;;;;;4994483;28;20088;-84
2021/07/05 15:57:04;;;;;;;1.30;1.13;;;34.50;91.80;;;;;;4977129;28;20482;-83
2021/07/05 15:59:30;;;;;;;0.90;0.90;;;33.80;91.00;;;;;;4995177;28;20139;-85
2021/07/05 16:01:56;;;;;;;1.35;1.02;;;34.30;95.30;;;;;;4991297;28;20061;-84
2021/07/05 16:04:22;;;;;;;0.90;0.85;;;34.30;91.70;;;;;;4996307;28;20056;-83
2021/07/05 16:06:48;;;;;;;2.08;1.38;;;33.40;89.70;;;;;;4984270;28;20061;-83
2021/07/05 16:09:14;;;;;;;7.10;3.05;;;32.60;89.20;;;;;;4994550;28;20536;-82
2021/07/05 16:11:40;;;;;;;2.17;1.65;;;31.70;90.40;;;;;;4994753;28;20386;-84
2021/07/05 16:14:07;;;;;;;2.20;1.30;;;31.00;91.30;;;;;;4977721;28;20058;-83
2021/07/05 16:16:33;;;;;;;1.55;1.40;;;30.60;92.10;;;;;;4977542;28;20023;-83
2021/07/05 16:18:59;;;;;;;2.00;1.38;;;30.20;91.80;;;;;;4994426;28;20073;-83
2021/07/05 16:21:27;;;;;;;3.60;1.50;;;29.60;91.10;;;;;;4994140;28;20037;-83
2021/07/05 16:23:53;;;;;;;3.00;1.50;;;29.10;91.70;;;;;;4977200;28;20034;-83
2021/07/05 16:26:19;;;;;;;3.13;1.75;;;28.70;91.80;;;;;;4976930;28;20069;-83
2021/07/05 16:28:46;;;;;;;3.03;1.67;;;28.20;92.20;;;;;;4994328;28;20027;-83
2021/07/05 16:31:12;;;;;;;2.30;1.58;;;27.80;92.40;;;;;;4994570;28;20374;-84
2021/07/05 16:33:40;;;;;;;1.10;1.00;;;27.40;92.60;;;;;;4994064;28;20023;-83
2021/07/05 16:36:06;;;;;;;3.97;1.58;;;27.10;92.90;;;;;;4994281;28;20529;-84
2021/07/05 16:38:31;;;;;;;1.42;1.25;;;26.80;93.10;;;;;;4994263;28;20026;-82
2021/07/05 16:40:57;;;;;;;4.25;2.10;;;26.70;93.20;;;;;;4994081;28;20081;-82
2021/07/05 16:43:23;;;;;;;2.50;1.40;;;26.50;93.20;;;;;;4976620;28;20414;-84
2021/07/05 16:45:49;;;;;;;5.65;2.25;;;26.20;93.30;;;;;;4993463;28;20023;-84
2021/07/05 16:48:18;;;;;;;4.10;2.00;;;25.70;92.90;;;;;;4976386;28;20030;-85
2021/07/05 16:51:02;;;;;;;3.35;2.10;;;25.50;93.00;;;;;;4976735;28;20069;-84
2021/07/05 16:53:36;;;;;;;4.18;2.67;;;25.10;92.90;;;;;;4960981;28;20086;-81
2021/07/05 16:56:04;;;;;;;2.17;1.60;;;24.80;93.00;;;;;;4938211;29;20031;-84
2021/07/05 16:58:29;;;;;;;3.47;1.80;;;24.60;93.50;;;;;;4955250;29;20147;-83
2021/07/05 17:01:00;;;;;;;5.07;1.90;;;24.50;93.80;;;;;;4937987;29;20122;-84
2021/07/05 17:03:30;;;;;;;2.53;1.50;;;24.20;93.80;;;;;;4938044;29;20042;-83
2021/07/05 17:05:56;;;;;;;4.43;2.08;;;24.50;96.10;;;;;;4937921;29;20023;-83
2021/07/05 17:08:22;;;;;;;4.68;1.88;;;24.90;96.10;;;;;;4937706;29;20154;-81
2021/07/05 17:10:48;;;;;;;3.30;1.95;;;25.60;97.40;;;;;;4955180;29;20111;-82
2021/07/05 17:13:16;;;;;;;2.35;1.65;;;26.30;98.40;;;;;;4955110;29;20019;-82
2021/07/05 17:15:42;;;;;;;2.08;1.58;;;26.90;96.40;;;;;;4937817;29;20031;-82
2021/07/05 17:18:08;;;;;;;2.72;1.80;;;27.00;95.20;;;;;;4971451;28;20034;-82
2021/07/05 17:20:34;;;;;;;2.70;1.55;;;26.90;94.30;;;;;;4956611;28;20031;-82
2021/07/05 17:23:00;;;;;;;4.60;1.60;;;26.70;93.90;;;;;;4974190;28;20034;-82
2021/07/05 17:25:26;;;;;;;2.80;1.55;;;26.50;93.80;;;;;;4974226;28;20029;-82
2021/07/05 17:27:52;;;;;;;2.55;1.52;;;26.20;93.00;;;;;;4956659;28;20062;-81
2021/07/05 17:30:18;;;;;;;2.13;1.58;;;25.80;93.10;;;;;;4974378;28;20027;-82
2021/07/05 17:32:44;;;;;;;3.42;1.60;;;25.40;93.00;;;;;;4975070;28;20059;-82
2021/07/05 17:35:12;;;;;;;4.07;1.70;;;25.00;93.30;;;;;;4958005;28;20031;-81
2021/07/05 17:37:39;;;;;;;3.58;2.13;;;24.70;93.20;;;;;;4974111;28;20101;-82
2021/07/05 17:40:07;;;;;;;3.15;1.98;;;24.30;92.70;;;;;;4957019;28;20023;-81
2021/07/05 17:42:33;;;;;;;4.55;2.20;;;23.70;91.80;;;;;;4974395;28;20449;-81
2021/07/05 17:45:00;;;;;;;4.30;1.88;;;23.30;92.60;;;;;;4974134;28;20107;-80
2021/07/05 17:47:26;;;;;;;3.60;1.90;;;23.00;93.60;;;;;;4957153;28;20046;-82
2021/07/05 17:49:52;;;;;;;2.25;1.60;;;22.80;93.60;;;;;;4974059;28;20030;-81
2021/07/05 17:52:18;;;;;;;2.25;1.50;;;22.60;93.70;;;;;;4973855;28;20121;-81
2021/07/05 17:54:43;;;;;;;2.35;1.13;;;22.40;94.10;;;;;;4974012;28;20035;-81
2021/07/05 17:57:09;;;;;;;2.22;1.30;;;22.30;94.40;;;;;;4991287;28;20109;-80
2021/07/05 17:59:35;;;;;;;1.80;1.40;;;22.20;94.60;;;;;;4996803;28;20026;-80
2021/07/05 18:02:01;;;;;;;1.20;1.10;;;22.20;94.70;;;;;;4980045;28;20030;-81
2021/07/05 18:04:30;;;;;;;2.25;1.48;;;22.30;94.90;;;;;;4994911;28;20382;-82
2021/07/05 18:06:56;;;;;;;10.48;3.53;;;22.20;95.10;;;;;;4982467;28;20031;-81
2021/07/05 18:09:25;;;;;;;4.13;2.05;;;22.30;95.20;;;;;;4976966;28;20149;-81
2021/07/05 18:11:51;;;;;;;1.65;1.30;;;22.40;96.00;;;;;;4977266;28;20027;-81
2021/07/05 18:14:17;;;;;;;2.67;1.40;;;22.50;95.50;;;;;;4977236;28;20034;-82
2021/07/05 18:16:43;;;;;;;3.53;1.30;;;22.50;95.50;;;;;;4959849;28;20367;-82